Terminal Aerodrome Forecast
Issued by NWS

Home | Current Version | Previous Version | Text Only | Print | Product List | Glossary On
Versions: 1 2 3 4 5 6 7 8 9 10 11 12 13 14 15
000
FTUS43 KIND 162333
TAFBMG
TAF
KBMG 162333Z 1700/1724 19008KT P6SM FEW120
     FM170700 19004KT P6SM VCTS BKN150CB
     FM171200 20006KT P6SM VCTS BKN030CB
     FM171800 22009KT P6SM -SHRA BKN070
     FM172100 23009KT P6SM BKN080
      AMD LTD TO CLD VIS AND WIND 1701/1713=

USA.gov is the U.S. government's official web portal to all federal, state and local government web resources and services.